createdAt,value
2023-06-25T00:01:29.763Z,21.90
2023-06-25T00:03:01.677Z,21.90
2023-06-25T00:04:33.707Z,21.80
2023-06-25T00:06:05.448Z,21.80
2023-06-25T00:07:37.142Z,21.80
2023-06-25T00:09:08.860Z,21.80
2023-06-25T00:10:40.633Z,21.80
2023-06-25T00:12:12.362Z,21.80
2023-06-25T00:13:44.690Z,21.70
2023-06-25T00:15:16.630Z,21.70
2023-06-25T00:16:48.315Z,21.70
2023-06-25T00:18:20.061Z,21.70
2023-06-25T00:19:51.922Z,21.70
2023-06-25T00:21:24.145Z,21.60
2023-06-25T00:23:06.719Z,21.70
2023-06-25T00:24:39.776Z,21.60
2023-06-25T00:26:11.554Z,21.60
2023-06-25T00:27:48.203Z,21.60
2023-06-25T00:29:20.001Z,21.60
2023-06-25T00:30:51.942Z,21.60
2023-06-25T00:32:25.145Z,21.60
2023-06-25T00:33:56.913Z,21.60
2023-06-25T00:35:48.926Z,21.50
2023-06-25T00:37:21.618Z,21.60
2023-06-25T00:38:53.661Z,21.60
2023-06-25T00:40:26.062Z,21.50
2023-06-25T00:42:01.772Z,21.50
2023-06-25T00:43:33.920Z,21.50
2023-06-25T00:45:07.131Z,21.40
2023-06-25T00:46:38.945Z,21.40
2023-06-25T00:48:25.275Z,21.40
2023-06-25T00:49:57.303Z,21.40
2023-06-25T00:51:29.251Z,21.40
2023-06-25T00:53:03.091Z,21.30
2023-06-25T00:54:36.094Z,21.30
2023-06-25T00:56:08.023Z,21.30
2023-06-25T00:57:39.721Z,21.30
2023-06-25T00:59:11.735Z,21.30
2023-06-25T01:00:45.123Z,21.30
2023-06-25T01:02:36.909Z,21.20
2023-06-25T01:04:20.624Z,21.20
2023-06-25T01:06:14.185Z,21.20
2023-06-25T01:07:47.103Z,21.20
2023-06-25T01:09:19.269Z,21.20
2023-06-25T01:10:51.094Z,21.10
2023-06-25T01:12:23.236Z,21.10
2023-06-25T01:13:55.027Z,21.10
2023-06-25T01:15:27.181Z,21.10
2023-06-25T01:16:59.034Z,21.10
2023-06-25T01:18:31.322Z,21.10
2023-06-25T01:20:06.860Z,21.00
2023-06-25T01:21:40.466Z,21.00
2023-06-25T01:23:12.378Z,21.00
2023-06-25T01:24:46.072Z,21.00
2023-06-25T01:26:17.898Z,21.00
2023-06-25T01:27:52.838Z,21.00
2023-06-25T01:29:24.926Z,21.00
2023-06-25T01:30:56.894Z,20.90
2023-06-25T01:32:31.229Z,20.90
2023-06-25T01:34:03.758Z,20.90
2023-06-25T01:35:35.837Z,20.90
2023-06-25T01:37:08.111Z,20.90
2023-06-25T01:38:39.887Z,20.90
2023-06-25T01:40:12.140Z,20.80
2023-06-25T01:41:44.827Z,20.80
2023-06-25T01:43:16.578Z,20.80
2023-06-25T01:44:48.502Z,20.80
2023-06-25T01:46:20.766Z,20.80
2023-06-25T01:47:52.606Z,20.80
2023-06-25T01:49:31.590Z,20.70
2023-06-25T01:51:04.795Z,20.70
2023-06-25T01:52:36.578Z,20.70
2023-06-25T01:54:08.416Z,20.70
2023-06-25T01:55:40.605Z,20.70
2023-06-25T01:57:12.532Z,20.70
2023-06-25T01:58:47.002Z,20.70
2023-06-25T02:00:19.321Z,20.70
2023-06-25T02:02:07.111Z,20.60
2023-06-25T02:03:38.987Z,20.60
2023-06-25T02:05:11.160Z,20.60
2023-06-25T02:06:43.036Z,20.60
2023-06-25T02:08:14.886Z,20.60
2023-06-25T02:09:46.639Z,20.60
2023-06-25T02:11:18.474Z,20.60
2023-06-25T02:12:50.271Z,20.50
2023-06-25T02:14:22.394Z,20.50
2023-06-25T02:15:54.121Z,20.50
2023-06-25T02:17:25.873Z,20.50
2023-06-25T02:18:58.467Z,20.50
2023-06-25T02:20:30.218Z,20.50
2023-06-25T02:22:02.143Z,20.40
2023-06-25T02:23:33.902Z,20.40
2023-06-25T02:25:06.142Z,20.40
2023-06-25T02:26:37.936Z,20.40
2023-06-25T02:28:09.683Z,20.40
2023-06-25T02:29:41.569Z,20.40
2023-06-25T02:31:13.409Z,20.30
2023-06-25T02:32:45.238Z,20.40
2023-06-25T02:34:19.451Z,20.40
2023-06-25T02:35:51.585Z,20.30
2023-06-25T02:37:23.325Z,20.30
2023-06-25T02:38:56.180Z,20.30
2023-06-25T02:40:30.824Z,20.30
2023-06-25T02:42:02.700Z,20.30
2023-06-25T02:43:34.682Z,20.30
2023-06-25T02:45:07.003Z,20.30
2023-06-25T02:46:41.244Z,20.30
2023-06-25T02:48:15.450Z,20.30
2023-06-25T02:49:49.652Z,20.20
2023-06-25T02:51:22.649Z,20.20
2023-06-25T02:52:54.357Z,20.20
2023-06-25T02:54:26.150Z,20.20
2023-06-25T02:55:57.937Z,20.20
2023-06-25T02:57:30.585Z,20.10
2023-06-25T02:59:02.368Z,20.10
2023-06-25T03:00:34.311Z,20.10
2023-06-25T03:02:06.378Z,20.10
2023-06-25T03:03:38.668Z,20.10
2023-06-25T03:05:10.462Z,20.10
2023-06-25T03:06:44.106Z,20.10
2023-06-25T03:08:16.305Z,20.10
2023-06-25T03:09:48.194Z,20.10
2023-06-25T03:11:20.025Z,20.10
2023-06-25T03:12:52.049Z,20.00
2023-06-25T03:15:58.650Z,20.10
2023-06-25T03:17:30.438Z,20.00
2023-06-25T03:19:04.070Z,20.00
2023-06-25T03:20:36.042Z,20.00
2023-06-25T03:22:07.816Z,20.00
2023-06-25T03:23:47.120Z,20.10
2023-06-25T03:25:19.106Z,20.00
2023-06-25T03:26:56.465Z,20.00
2023-06-25T03:28:28.697Z,20.00
2023-06-25T03:30:00.584Z,20.00
2023-06-25T03:31:33.157Z,20.00
2023-06-25T03:33:09.770Z,20.00
2023-06-25T03:34:41.500Z,19.90
2023-06-25T03:36:14.611Z,19.90
2023-06-25T03:37:47.014Z,19.90
2023-06-25T03:39:19.438Z,19.90
2023-06-25T03:40:51.254Z,19.90
2023-06-25T03:42:22.980Z,19.90
2023-06-25T03:43:54.973Z,19.90
2023-06-25T03:45:29.885Z,19.90
2023-06-25T03:47:02.470Z,19.90
2023-06-25T03:48:34.741Z,19.90
2023-06-25T03:50:07.833Z,19.90
2023-06-25T03:51:41.482Z,19.90
2023-06-25T03:53:14.261Z,19.80
2023-06-25T03:54:46.633Z,19.80
2023-06-25T03:56:18.448Z,19.80
2023-06-25T03:57:51.575Z,19.80
2023-06-25T03:59:23.307Z,19.80
2023-06-25T04:00:55.513Z,19.80
2023-06-25T04:02:27.478Z,19.80
2023-06-25T04:03:59.283Z,19.80
2023-06-25T04:05:31.110Z,19.80
2023-06-25T04:07:03.696Z,19.80
2023-06-25T04:08:35.479Z,19.80
2023-06-25T04:10:07.534Z,19.80
2023-06-25T04:11:39.518Z,19.80
2023-06-25T04:13:11.438Z,19.80
2023-06-25T04:14:44.091Z,19.80
2023-06-25T04:16:15.823Z,19.80
2023-06-25T04:17:50.825Z,19.80
2023-06-25T04:19:22.661Z,19.80
2023-06-25T04:21:00.261Z,19.80
2023-06-25T04:22:32.024Z,19.80
2023-06-25T04:24:04.300Z,19.80
2023-06-25T04:25:37.877Z,19.80
2023-06-25T04:27:10.299Z,19.80
2023-06-25T04:28:42.105Z,19.80
2023-06-25T04:30:14.384Z,19.80
2023-06-25T04:31:46.411Z,19.80
2023-06-25T04:33:19.929Z,19.80
2023-06-25T04:34:51.776Z,19.80
2023-06-25T04:36:26.970Z,19.80
2023-06-25T04:38:02.901Z,19.80
2023-06-25T04:39:34.993Z,19.80
2023-06-25T04:41:07.418Z,19.80
2023-06-25T04:42:39.356Z,19.80
2023-06-25T04:44:11.129Z,19.80
2023-06-25T04:45:43.409Z,19.80
2023-06-25T04:47:15.296Z,19.80
2023-06-25T04:48:47.678Z,19.80
2023-06-25T04:50:20.226Z,19.80
2023-06-25T04:51:52.061Z,19.80
2023-06-25T04:53:23.749Z,19.90
2023-06-25T04:54:55.471Z,19.90
2023-06-25T04:56:27.304Z,19.90
2023-06-25T04:57:58.991Z,19.90
2023-06-25T04:59:30.749Z,19.90
2023-06-25T05:01:03.874Z,19.90
2023-06-25T05:02:35.745Z,19.90
2023-06-25T05:04:07.555Z,19.90
2023-06-25T05:05:39.540Z,19.90
2023-06-25T05:07:11.976Z,19.90
2023-06-25T05:08:43.703Z,19.90
2023-06-25T05:10:16.918Z,20.00
2023-06-25T05:11:48.827Z,20.00
2023-06-25T05:13:20.550Z,20.00
2023-06-25T05:14:52.248Z,20.00
2023-06-25T05:16:24.553Z,20.00
2023-06-25T05:17:56.273Z,20.00
2023-06-25T05:19:28.018Z,20.10
2023-06-25T05:20:59.817Z,20.10
2023-06-25T05:22:31.574Z,20.10
2023-06-25T05:24:04.621Z,20.10
2023-06-25T05:25:36.940Z,20.10
2023-06-25T05:27:09.206Z,20.10
2023-06-25T05:28:40.936Z,20.10
2023-06-25T05:30:12.802Z,20.10
2023-06-25T05:31:46.985Z,20.20
2023-06-25T05:33:18.720Z,20.20
2023-06-25T05:34:50.625Z,20.20
2023-06-25T05:36:22.414Z,20.20
2023-06-25T05:37:54.194Z,20.20
2023-06-25T05:39:29.990Z,20.30
2023-06-25T05:41:01.732Z,20.30
2023-06-25T05:42:33.406Z,20.30
2023-06-25T05:44:05.361Z,20.30
2023-06-25T05:45:37.285Z,20.30
2023-06-25T05:47:09.288Z,20.40
2023-06-25T05:48:41.777Z,20.40
2023-06-25T05:50:16.223Z,20.40
2023-06-25T05:51:49.017Z,20.50
2023-06-25T05:53:25.942Z,20.50
2023-06-25T05:54:57.793Z,20.50
2023-06-25T05:56:29.546Z,20.50
2023-06-25T05:58:01.310Z,20.50
2023-06-25T05:59:33.053Z,20.60
2023-06-25T06:01:05.572Z,20.60
2023-06-25T06:02:37.384Z,20.60
2023-06-25T06:04:09.154Z,20.60
2023-06-25T06:05:40.887Z,20.70
2023-06-25T06:07:12.692Z,20.70
2023-06-25T06:08:44.713Z,20.70
2023-06-25T06:10:17.384Z,20.70
2023-06-25T06:11:49.091Z,20.80
2023-06-25T06:13:21.197Z,20.80
2023-06-25T06:14:52.929Z,20.80
2023-06-25T06:16:24.866Z,20.80
2023-06-25T06:17:56.652Z,20.90
2023-06-25T06:19:28.436Z,20.90
2023-06-25T06:21:00.140Z,20.90
2023-06-25T06:22:31.944Z,21.00
2023-06-25T06:24:04.244Z,21.00
2023-06-25T06:25:36.302Z,21.00
2023-06-25T06:27:09.033Z,21.00
2023-06-25T06:28:40.795Z,21.10
2023-06-25T06:30:13.053Z,21.10
2023-06-25T06:31:44.816Z,21.20
2023-06-25T06:33:16.633Z,21.10
2023-06-25T06:34:48.397Z,21.20
2023-06-25T06:36:20.261Z,21.20
2023-06-25T06:37:52.600Z,21.20
2023-06-25T06:39:24.713Z,21.20
2023-06-25T06:40:56.875Z,21.30
2023-06-25T06:42:29.376Z,21.30
2023-06-25T06:44:13.438Z,21.30
2023-06-25T06:45:45.636Z,21.40
2023-06-25T06:47:17.876Z,21.40
2023-06-25T06:48:49.979Z,21.40
2023-06-25T06:50:22.296Z,21.50
2023-06-25T06:51:54.228Z,21.50
2023-06-25T06:53:34.193Z,21.50
2023-06-25T06:55:09.119Z,21.60
2023-06-25T06:56:41.098Z,21.60
2023-06-25T06:58:13.031Z,21.70
2023-06-25T06:59:50.699Z,21.70
2023-06-25T07:01:22.475Z,21.70
2023-06-25T07:02:58.791Z,21.70
2023-06-25T07:04:30.562Z,21.80
2023-06-25T07:06:07.453Z,21.80
2023-06-25T07:07:39.879Z,21.90
2023-06-25T07:09:11.639Z,21.90
2023-06-25T07:10:43.379Z,21.90
2023-06-25T07:12:15.198Z,22.00
2023-06-25T07:13:48.209Z,22.00
2023-06-25T07:15:20.603Z,22.00
2023-06-25T07:16:52.708Z,22.10
2023-06-25T07:18:26.921Z,22.10
2023-06-25T07:20:00.045Z,22.10
2023-06-25T07:21:31.809Z,22.20
2023-06-25T07:23:03.734Z,22.20
2023-06-25T07:24:35.739Z,22.20
2023-06-25T07:26:07.899Z,22.30
2023-06-25T07:27:40.075Z,22.30
2023-06-25T07:29:11.969Z,22.40
2023-06-25T07:30:46.099Z,22.40
2023-06-25T07:32:18.052Z,22.40
2023-06-25T07:33:49.807Z,22.50
2023-06-25T07:35:22.898Z,22.50
2023-06-25T07:36:54.769Z,22.50
2023-06-25T07:38:26.652Z,22.60
2023-06-25T07:39:58.450Z,22.60
2023-06-25T07:41:30.530Z,22.60
2023-06-25T07:43:04.015Z,22.70
2023-06-25T07:44:50.426Z,22.70
2023-06-25T07:46:27.076Z,22.80
2023-06-25T07:47:59.454Z,22.80
2023-06-25T07:49:31.269Z,22.80
2023-06-25T07:51:03.051Z,22.90
2023-06-25T07:52:34.835Z,22.90
2023-06-25T07:54:06.560Z,23.00
2023-06-25T07:55:52.663Z,23.00
2023-06-25T07:57:32.702Z,23.00
2023-06-25T07:59:04.540Z,23.10
2023-06-25T08:00:36.373Z,23.10
2023-06-25T08:02:08.112Z,23.20
2023-06-25T08:03:40.009Z,23.20
2023-06-25T08:05:11.885Z,23.20
2023-06-25T08:06:43.780Z,23.30
2023-06-25T08:08:15.593Z,23.30
2023-06-25T08:09:54.122Z,23.30
2023-06-25T08:11:33.156Z,23.40
2023-06-25T08:13:04.977Z,23.40
2023-06-25T08:14:36.733Z,23.50
2023-06-25T08:16:08.476Z,23.50
2023-06-25T08:46:00.526Z,24.20
2023-06-25T08:47:39.485Z,24.20
2023-06-25T08:49:13.998Z,24.20
2023-06-25T08:51:00.455Z,24.30
2023-06-25T08:52:41.171Z,24.30
2023-06-25T08:54:13.267Z,24.40
2023-06-25T08:55:47.840Z,24.40
2023-06-25T08:57:20.265Z,24.40
2023-06-25T08:58:54.898Z,24.50
2023-06-25T09:00:27.028Z,24.50
2023-06-25T09:02:02.523Z,24.50
2023-06-25T09:03:46.044Z,24.60
2023-06-25T09:07:22.517Z,24.70
2023-06-25T09:08:54.781Z,24.70
2023-06-25T09:10:48.167Z,24.70
2023-06-25T09:12:26.660Z,24.70
2023-06-25T09:19:44.447Z,24.90
2023-06-25T09:21:16.410Z,24.90
2023-06-25T09:22:58.115Z,24.90
2023-06-25T09:58:43.566Z,25.60
2023-06-25T10:00:29.507Z,25.60
2023-06-25T10:02:02.647Z,25.60
2023-06-25T10:03:35.636Z,25.70
2023-06-25T10:05:07.979Z,25.70
2023-06-25T10:06:40.214Z,25.70
2023-06-25T10:08:13.752Z,25.70
2023-06-25T10:09:55.441Z,25.80
2023-06-25T10:11:28.168Z,25.80
2023-06-25T10:13:03.946Z,25.80
2023-06-25T10:14:39.736Z,25.80
2023-06-25T10:16:26.468Z,25.90
2023-06-25T10:18:07.533Z,25.90
2023-06-25T10:19:39.753Z,25.90
2023-06-25T10:21:22.835Z,26.00
2023-06-25T10:23:11.648Z,26.00
2023-06-25T10:24:48.839Z,26.00
2023-06-25T10:26:26.198Z,26.10
2023-06-25T10:28:08.719Z,26.10
2023-06-25T10:29:42.015Z,26.10
2023-06-25T10:31:15.434Z,26.10
2023-06-25T10:32:47.690Z,26.10
2023-06-25T10:34:20.917Z,26.10
2023-06-25T10:36:02.098Z,26.20
2023-06-25T10:37:36.117Z,26.20
2023-06-25T10:39:08.164Z,26.20
2023-06-25T10:40:42.731Z,26.20
2023-06-25T10:44:51.272Z,26.30
2023-06-25T10:46:55.144Z,26.30
2023-06-25T10:49:16.332Z,26.30
2023-06-25T10:54:24.317Z,26.30
2023-06-25T10:55:56.965Z,26.40
2023-06-25T11:07:38.082Z,26.50
2023-06-25T11:09:10.963Z,26.50
2023-06-25T11:10:44.473Z,26.60
2023-06-25T11:12:17.224Z,26.60
2023-06-25T11:13:53.425Z,26.60
2023-06-25T11:15:25.963Z,26.60
2023-06-25T11:47:10.290Z,26.90
2023-06-25T11:48:49.567Z,27.00
2023-06-25T11:50:25.308Z,27.00
2023-06-25T11:51:58.903Z,27.00
2023-06-25T11:53:32.031Z,27.00
2023-06-25T11:55:04.418Z,27.10
2023-06-25T11:56:39.345Z,27.10
2023-06-25T11:58:12.378Z,27.10
2023-06-25T11:59:44.636Z,27.10
2023-06-25T12:01:16.957Z,27.10
2023-06-25T12:02:52.527Z,27.20
2023-06-25T12:04:28.551Z,27.20
2023-06-25T12:06:06.261Z,27.20
2023-06-25T12:07:38.993Z,27.20
2023-06-25T12:09:11.008Z,27.20
2023-06-25T12:10:43.022Z,27.20
2023-06-25T12:12:15.024Z,27.30
2023-06-25T12:13:46.955Z,27.30
2023-06-25T12:15:19.311Z,27.30
2023-06-25T12:16:54.617Z,27.30
2023-06-25T12:18:26.527Z,27.30
2023-06-25T12:22:57.967Z,27.30
2023-06-25T12:24:29.919Z,27.40
2023-06-25T12:26:02.419Z,27.40
2023-06-25T12:27:34.938Z,27.40
2023-06-25T12:29:07.925Z,27.40
2023-06-25T12:30:39.847Z,27.40
2023-06-25T12:32:11.903Z,27.40
2023-06-25T12:33:46.754Z,27.40
2023-06-25T12:35:19.338Z,27.40
2023-06-25T12:36:51.901Z,27.50
2023-06-25T12:38:30.662Z,27.50
2023-06-25T12:40:03.853Z,27.50
2023-06-25T12:41:35.890Z,27.50
2023-06-25T12:43:22.728Z,27.50
2023-06-25T12:44:55.867Z,27.50
2023-06-25T12:46:37.715Z,27.50
2023-06-25T12:48:11.349Z,27.50
2023-06-25T12:49:45.093Z,27.50
2023-06-25T12:51:17.079Z,27.50
2023-06-25T12:53:24.006Z,27.50
2023-06-25T12:54:56.044Z,27.50
2023-06-25T12:56:29.824Z,27.60
2023-06-25T12:58:04.353Z,27.60
2023-06-25T12:59:38.880Z,27.60
2023-06-25T13:01:15.461Z,27.60
2023-06-25T13:02:47.638Z,27.60
2023-06-25T13:04:19.747Z,27.60
2023-06-25T13:05:52.022Z,27.60
2023-06-25T13:07:24.443Z,27.60
2023-06-25T13:10:45.785Z,27.60
2023-06-25T15:20:17.181Z,28.20
2023-06-25T15:21:48.909Z,28.20
2023-06-25T15:23:20.934Z,28.20
2023-06-25T15:24:52.754Z,28.30
2023-06-25T15:26:24.541Z,28.20
2023-06-25T15:27:56.795Z,28.20
2023-06-25T15:29:30.210Z,28.20
2023-06-25T15:31:01.969Z,28.20
2023-06-25T15:32:35.591Z,28.20
2023-06-25T15:34:09.657Z,28.20
2023-06-25T15:35:41.357Z,28.20
2023-06-25T15:37:13.112Z,28.20
2023-06-25T15:38:44.850Z,28.20
2023-06-25T15:40:16.637Z,28.20
2023-06-25T15:41:48.651Z,28.20
2023-06-25T15:43:21.299Z,28.20
2023-06-25T15:44:53.005Z,28.20
2023-06-25T15:46:24.909Z,28.20
2023-06-25T15:47:56.706Z,28.30
2023-06-25T15:49:28.849Z,28.20
2023-06-25T15:51:00.596Z,28.20
2023-06-25T15:52:32.293Z,28.20
2023-06-25T15:54:20.812Z,28.20
2023-06-25T15:55:56.932Z,28.20
2023-06-25T15:57:28.722Z,28.20
2023-06-25T15:59:01.380Z,28.20
2023-06-25T16:00:35.357Z,28.20
2023-06-25T16:02:07.283Z,28.20
2023-06-25T16:03:39.426Z,28.20
2023-06-25T16:05:11.300Z,28.20
2023-06-25T16:06:43.284Z,28.20
2023-06-25T16:08:15.050Z,28.20
2023-06-25T16:09:46.770Z,28.20
2023-06-25T16:11:18.552Z,28.20
2023-06-25T16:12:50.292Z,28.20
2023-06-25T16:14:22.064Z,28.20
2023-06-25T16:15:53.786Z,28.20
2023-06-25T18:55:10.912Z,27.90
2023-06-25T18:56:43.296Z,27.90
2023-06-25T18:58:17.075Z,27.90
2023-06-25T18:59:49.006Z,27.90
2023-06-25T19:01:20.810Z,27.90
2023-06-25T19:02:52.854Z,27.90
2023-06-25T19:04:25.202Z,27.90
2023-06-25T19:05:57.032Z,27.90
2023-06-25T19:07:28.859Z,27.90
2023-06-25T19:09:00.785Z,28.00
2023-06-25T19:10:35.594Z,27.90
2023-06-25T19:12:07.907Z,27.90
2023-06-25T19:14:03.416Z,27.90
2023-06-25T19:15:35.421Z,27.90
2023-06-25T19:17:07.936Z,27.90
2023-06-25T19:18:39.901Z,27.90
2023-06-25T19:20:12.229Z,27.90
2023-06-25T19:21:45.228Z,27.90
2023-06-25T19:23:29.587Z,27.90
2023-06-25T19:25:03.816Z,27.80
2023-06-25T19:26:35.692Z,27.80
2023-06-25T19:28:07.431Z,27.80
2023-06-25T19:29:39.305Z,27.80
2023-06-25T19:31:11.099Z,27.80
2023-06-25T19:32:42.904Z,27.80
2023-06-25T19:34:15.897Z,27.80
2023-06-25T19:35:47.699Z,27.80
2023-06-25T19:37:19.553Z,27.80
2023-06-25T19:38:51.391Z,27.80
2023-06-25T19:40:23.185Z,27.80
2023-06-25T19:41:56.385Z,27.80
2023-06-25T19:43:28.220Z,27.70
2023-06-25T19:45:00.752Z,27.70
2023-06-25T19:46:32.536Z,27.70
2023-06-25T19:48:04.610Z,27.70
2023-06-25T19:49:36.577Z,27.70
2023-06-25T19:51:09.463Z,27.60
2023-06-25T19:52:41.308Z,27.60
2023-06-25T19:54:13.082Z,27.60
2023-06-25T19:55:45.699Z,27.60
2023-06-25T19:57:17.419Z,27.60
2023-06-25T19:58:49.114Z,27.60
2023-06-25T20:00:20.808Z,27.60
2023-06-25T20:01:52.560Z,27.60
2023-06-25T20:03:24.382Z,27.60
2023-06-25T20:04:56.153Z,27.50
2023-06-25T20:06:27.965Z,27.50
2023-06-25T20:07:59.786Z,27.50
2023-06-25T20:09:34.607Z,27.50
2023-06-25T20:11:06.373Z,27.50
2023-06-25T20:12:38.096Z,27.50
2023-06-25T20:14:09.828Z,27.40
2023-06-25T20:15:41.648Z,27.40
2023-06-25T20:17:13.488Z,27.40
2023-06-25T20:18:45.584Z,27.40
2023-06-25T20:20:19.441Z,27.40
2023-06-25T20:21:51.886Z,27.40
2023-06-25T20:23:29.952Z,27.30
2023-06-25T20:25:04.492Z,27.30
2023-06-25T20:26:39.300Z,27.30
2023-06-25T20:28:16.078Z,27.30
2023-06-25T20:29:51.355Z,27.30
2023-06-25T20:31:29.404Z,27.20
2023-06-25T20:33:05.467Z,27.20
2023-06-25T20:34:50.469Z,27.20
2023-06-25T20:36:24.960Z,27.20
2023-06-25T20:38:06.135Z,27.10
2023-06-25T20:39:47.071Z,27.10
2023-06-25T20:41:32.449Z,27.10
2023-06-25T20:43:10.460Z,27.10
2023-06-25T20:44:42.726Z,27.10
2023-06-25T20:46:16.119Z,27.00
2023-06-25T20:47:51.265Z,27.00
2023-06-25T20:49:23.487Z,27.00
2023-06-25T20:51:02.480Z,26.90
2023-06-25T20:52:34.881Z,26.90
2023-06-25T20:54:11.833Z,26.90
2023-06-25T20:55:44.133Z,26.80
2023-06-25T20:57:18.474Z,26.80
2023-06-25T20:58:50.628Z,26.80
2023-06-25T21:00:30.157Z,26.80
2023-06-25T21:02:09.112Z,26.70
2023-06-25T21:03:41.834Z,26.70
2023-06-25T21:05:17.091Z,26.70
2023-06-25T21:07:09.575Z,26.60
2023-06-25T21:08:44.264Z,26.60
2023-06-25T21:10:29.835Z,26.60
2023-06-25T21:12:05.461Z,26.60
2023-06-25T21:13:48.580Z,26.50
2023-06-25T21:15:21.820Z,26.50
2023-06-25T21:17:09.858Z,26.50
2023-06-25T21:18:41.880Z,26.50
2023-06-25T21:20:19.799Z,26.40
2023-06-25T21:21:57.790Z,26.40
2023-06-25T21:23:29.905Z,26.40
2023-06-25T21:25:03.744Z,26.40
2023-06-25T21:26:36.210Z,26.30
2023-06-25T21:28:09.797Z,26.30
2023-06-25T21:29:42.184Z,26.30
2023-06-25T21:31:18.860Z,26.30
2023-06-25T21:32:53.430Z,26.30
2023-06-25T21:34:25.615Z,26.20
2023-06-25T21:35:57.989Z,26.20
2023-06-25T21:37:29.928Z,26.20
2023-06-25T21:39:04.981Z,26.20
2023-06-25T21:40:42.788Z,26.10
2023-06-25T21:42:15.532Z,26.10
2023-06-25T21:43:49.669Z,26.10
2023-06-25T21:45:24.056Z,26.10
2023-06-25T21:46:59.093Z,26.00
2023-06-25T21:48:31.847Z,26.00
2023-06-25T21:50:04.645Z,26.00
2023-06-25T21:51:37.178Z,26.00
2023-06-25T21:53:11.945Z,26.00
2023-06-25T21:54:48.446Z,25.90
2023-06-25T21:56:23.541Z,25.90
2023-06-25T21:57:55.763Z,25.90
2023-06-25T21:59:33.014Z,25.90
2023-06-25T22:01:07.950Z,25.90
2023-06-25T22:02:41.260Z,25.80
2023-06-25T22:04:22.300Z,25.80
2023-06-25T22:06:00.345Z,25.80
2023-06-25T22:07:35.868Z,25.80
2023-06-25T22:09:11.186Z,25.70
2023-06-25T22:10:48.575Z,25.70
2023-06-25T22:12:29.341Z,25.70
2023-06-25T22:14:01.917Z,25.70
2023-06-25T22:15:33.990Z,25.70
2023-06-25T22:17:06.385Z,25.60
2023-06-25T22:18:49.086Z,25.60
2023-06-25T22:20:21.623Z,25.60
2023-06-25T22:21:53.502Z,25.60
2023-06-25T22:23:25.214Z,25.50
2023-06-25T22:24:56.978Z,25.50
2023-06-25T22:26:31.492Z,25.50
2023-06-25T22:28:03.796Z,25.50
2023-06-25T22:29:42.379Z,25.40
2023-06-25T22:31:14.907Z,25.40
2023-06-25T22:32:46.707Z,25.40
2023-06-25T22:34:20.319Z,25.40
2023-06-25T22:35:52.067Z,25.40
2023-06-25T22:37:23.812Z,25.30
2023-06-25T22:38:55.563Z,25.30
2023-06-25T22:40:27.341Z,25.30
2023-06-25T22:41:59.208Z,25.30
2023-06-25T22:43:30.919Z,25.30
2023-06-25T22:45:03.412Z,25.30
2023-06-25T22:46:35.307Z,25.20
2023-06-25T22:48:07.258Z,25.20
2023-06-25T22:49:39.947Z,25.20
2023-06-25T22:51:11.696Z,25.20
2023-06-25T22:52:43.426Z,25.10
2023-06-25T22:54:18.226Z,25.10
2023-06-25T22:55:50.828Z,25.10
2023-06-25T22:57:22.815Z,25.10
2023-06-25T22:58:54.767Z,25.10
2023-06-25T23:00:29.138Z,25.00
2023-06-25T23:02:01.156Z,25.00
2023-06-25T23:03:33.310Z,25.00
2023-06-25T23:05:05.666Z,25.00
2023-06-25T23:06:37.583Z,25.00
2023-06-25T23:08:10.697Z,25.00
2023-06-25T23:09:42.632Z,24.90
2023-06-25T23:11:14.488Z,24.90
2023-06-25T23:12:46.440Z,24.90
2023-06-25T23:14:18.556Z,24.90
2023-06-25T23:15:50.568Z,24.90
2023-06-25T23:17:22.732Z,24.80
2023-06-25T23:18:57.064Z,24.80
2023-06-25T23:20:29.089Z,24.80
2023-06-25T23:22:03.087Z,24.80
2023-06-25T23:23:37.141Z,24.80
2023-06-25T23:25:19.366Z,24.80
2023-06-25T23:26:59.316Z,24.70
2023-06-25T23:28:33.608Z,24.70
2023-06-25T23:30:08.573Z,24.70
2023-06-25T23:31:40.666Z,24.70
2023-06-25T23:33:12.922Z,24.70
2023-06-25T23:34:52.846Z,24.60
2023-06-25T23:36:25.617Z,24.60
2023-06-25T23:37:57.968Z,24.60
2023-06-25T23:39:30.233Z,24.60
2023-06-25T23:41:05.350Z,24.60
2023-06-25T23:42:37.408Z,24.60
2023-06-25T23:44:12.444Z,24.60
2023-06-25T23:45:46.879Z,24.50
2023-06-25T23:47:18.864Z,24.50
2023-06-25T23:48:53.634Z,24.50
2023-06-25T23:50:25.582Z,24.50
2023-06-25T23:52:22.067Z,24.50
2023-06-25T23:53:54.078Z,24.40
2023-06-25T23:55:28.875Z,24.40
2023-06-25T23:57:00.963Z,24.40
2023-06-25T23:58:33.112Z,24.40
